Time;durP1;ratioP1;P1;durP2;ratioP2;P2;SDS_P1;SDS_P2;PMS_P1;PMS_P2;Temp;Humidity;BMP_temperature;BMP_pressure;BME280_temperature;BME280_humidity;BME280_pressure;Samples;Min_cycle;Max_cycle;Signal;HPM_P1;HPM_P2
2022/04/04 00:01:31;;;;;;;;;;;22.60;28.20;;;;;;5088843;28;20376;-67
2022/04/04 00:03:58;;;;;;;;;;;22.70;28.30;;;;;;5089331;28;19934;-67
2022/04/04 00:06:29;;;;;;;;;;;22.70;28.70;;;;;;5089422;28;20053;-69
2022/04/04 00:08:56;;;;;;;;;;;22.60;28.20;;;;;;5071721;28;19924;-68
2022/04/04 00:11:24;;;;;;;;;;;22.60;28.20;;;;;;5088666;28;19935;-68
2022/04/04 00:13:51;;;;;;;;;;;22.60;28.20;;;;;;5088764;28;19989;-67
2022/04/04 00:16:18;;;;;;;;;;;22.60;28.20;;;;;;5089243;28;20412;-67
2022/04/04 00:18:45;;;;;;;;;;;22.60;28.20;;;;;;5089151;28;19928;-67
2022/04/04 00:21:12;;;;;;;;;;;22.60;28.20;;;;;;5088974;28;20280;-67
2022/04/04 00:23:39;;;;;;;;;;;22.60;28.20;;;;;;5085161;28;19924;-67
2022/04/04 00:26:06;;;;;;;;;;;22.60;28.20;;;;;;5087770;28;19924;-67
2022/04/04 00:28:33;;;;;;;;;;;22.60;28.20;;;;;;5071636;28;20414;-67
2022/04/04 00:31:00;;;;;;;;;;;22.60;28.20;;;;;;5088679;28;19924;-67
2022/04/04 00:33:27;;;;;;;;;;;22.60;28.20;;;;;;5088535;28;19978;-67
2022/04/04 00:35:54;;;;;;;;;;;22.60;28.20;;;;;;5088349;28;20409;-67
2022/04/04 00:38:22;;;;;;;;;;;22.60;28.20;;;;;;5088875;28;19974;-67
2022/04/04 00:40:49;;;;;;;;;;;22.60;28.20;;;;;;5088806;28;19935;-67
2022/04/04 00:43:16;;;;;;;;;;;22.60;28.20;;;;;;5088831;28;20311;-67
2022/04/04 00:45:45;;;;;;;;;;;22.60;28.20;;;;;;5088362;28;19932;-67
2022/04/04 00:48:12;;;;;;;;;;;22.60;28.30;;;;;;5089071;28;19977;-68
2022/04/04 00:50:39;;;;;;;;;;;22.60;28.30;;;;;;5088384;28;20277;-67
2022/04/04 00:53:09;;;;;;;;;;;22.60;28.30;;;;;;5071562;28;20317;-67
2022/04/04 00:55:36;;;;;;;;;;;22.50;28.30;;;;;;5084042;28;20324;-68
2022/04/04 00:58:04;;;;;;;;;;;22.50;28.30;;;;;;5089078;28;19928;-67
2022/04/04 01:00:32;;;;;;;;;;;22.50;28.30;;;;;;5089078;28;19924;-67
2022/04/04 01:03:00;;;;;;;;;;;22.50;28.30;;;;;;5088509;28;19925;-67
2022/04/04 01:05:27;;;;;;;;;;;22.50;28.30;;;;;;5089218;28;20331;-67
2022/04/04 01:07:55;;;;;;;;;;;22.50;28.30;;;;;;5070767;28;20438;-67
2022/04/04 01:10:22;;;;;;;;;;;22.50;28.30;;;;;;5089169;28;19962;-67
2022/04/04 01:12:56;;;;;;;;;;;22.50;28.30;;;;;;5088062;28;19946;-67
2022/04/04 01:15:25;;;;;;;;;;;22.50;28.30;;;;;;5088629;28;19928;-66
2022/04/04 01:17:52;;;;;;;;;;;22.50;28.40;;;;;;5088777;28;19985;-66
2022/04/04 01:20:19;;;;;;;;;;;22.50;28.40;;;;;;5088475;28;19974;-66
2022/04/04 01:22:47;;;;;;;;;;;22.50;28.40;;;;;;5088617;28;20369;-66
2022/04/04 01:25:15;;;;;;;;;;;22.50;28.40;;;;;;5088450;28;19928;-67
2022/04/04 01:27:46;;;;;;;;;;;22.50;28.40;;;;;;5082950;28;20278;-67
2022/04/04 01:30:13;;;;;;;;;;;22.50;28.40;;;;;;5088924;28;19977;-67
2022/04/04 01:32:40;;;;;;;;;;;22.50;28.40;;;;;;5087994;28;20116;-67
2022/04/04 01:35:07;;;;;;;;;;;22.50;28.40;;;;;;5088290;28;19928;-67
2022/04/04 01:37:34;;;;;;;;;;;22.50;28.50;;;;;;5087967;28;19932;-67
2022/04/04 01:40:01;;;;;;;;;;;22.50;28.40;;;;;;5088848;28;20358;-67
2022/04/04 01:42:28;;;;;;;;;;;22.50;28.40;;;;;;5089298;28;19930;-67
2022/04/04 01:44:55;;;;;;;;;;;22.50;28.40;;;;;;5092699;28;20194;-67
2022/04/04 01:47:22;;;;;;;;;;;22.50;28.50;;;;;;5093129;28;19954;-67
2022/04/04 01:49:49;;;;;;;;;;;22.50;28.50;;;;;;5096220;28;19924;-67
2022/04/04 01:52:16;;;;;;;;;;;22.50;28.50;;;;;;5095898;28;19925;-67
2022/04/04 01:54:43;;;;;;;;;;;22.50;28.50;;;;;;5096174;28;19924;-67
2022/04/04 01:57:10;;;;;;;;;;;22.50;28.50;;;;;;5094894;28;19954;-67
2022/04/04 01:59:37;;;;;;;;;;;22.50;28.50;;;;;;5090764;28;19924;-67
2022/04/04 02:02:04;;;;;;;;;;;22.50;28.50;;;;;;5095121;28;19931;-67
2022/04/04 02:04:31;;;;;;;;;;;22.50;28.50;;;;;;5095111;28;19947;-67
2022/04/04 02:06:59;;;;;;;;;;;22.50;28.50;;;;;;5094689;28;19932;-67
2022/04/04 02:09:26;;;;;;;;;;;22.50;28.50;;;;;;5094568;28;20614;-67
2022/04/04 02:11:53;;;;;;;;;;;22.50;28.50;;;;;;5076625;28;19924;-67
2022/04/04 02:14:20;;;;;;;;;;;22.50;28.50;;;;;;5093523;28;20372;-67
2022/04/04 02:16:47;;;;;;;;;;;22.40;28.40;;;;;;5094615;28;19960;-67
2022/04/04 02:19:16;;;;;;;;;;;22.50;28.50;;;;;;5094077;28;19936;-67
2022/04/04 02:21:43;;;;;;;;;;;22.50;28.50;;;;;;5075407;28;19974;-67
2022/04/04 02:24:11;;;;;;;;;;;22.50;28.50;;;;;;5093546;28;20337;-67
2022/04/04 02:26:38;;;;;;;;;;;22.50;28.50;;;;;;5092854;28;20371;-67
2022/04/04 02:29:05;;;;;;;;;;;22.50;28.50;;;;;;5093748;28;20576;-67
2022/04/04 02:31:32;;;;;;;;;;;22.50;28.50;;;;;;5089819;28;19982;-67
2022/04/04 02:33:59;;;;;;;;;;;22.50;28.50;;;;;;5076066;28;20401;-67
2022/04/04 02:36:26;;;;;;;;;;;22.50;28.50;;;;;;5094251;28;20278;-67
2022/04/04 02:38:53;;;;;;;;;;;22.50;28.50;;;;;;5093430;28;20265;-68
2022/04/04 02:41:20;;;;;;;;;;;22.40;28.50;;;;;;5093815;28;20361;-67
2022/04/04 02:43:47;;;;;;;;;;;22.50;28.50;;;;;;5093488;28;19931;-67
2022/04/04 02:46:14;;;;;;;;;;;22.50;28.50;;;;;;5093618;28;20296;-67
2022/04/04 02:48:42;;;;;;;;;;;22.50;28.50;;;;;;5093218;28;19930;-68
2022/04/04 02:51:09;;;;;;;;;;;22.50;28.60;;;;;;5091964;28;19959;-67
2022/04/04 02:53:36;;;;;;;;;;;22.50;28.60;;;;;;5092044;28;19924;-67
2022/04/04 02:58:50;;;;;;;;;;;22.50;28.60;;;;;;5091215;28;20052;-67
2022/04/04 03:01:19;;;;;;;;;;;22.40;28.50;;;;;;5092084;28;20021;-68
2022/04/04 03:03:46;;;;;;;;;;;22.40;28.50;;;;;;5090165;28;19928;-67
2022/04/04 03:06:13;;;;;;;;;;;22.40;28.50;;;;;;5094002;28;19946;-67
2022/04/04 03:08:41;;;;;;;;;;;22.40;28.60;;;;;;5092316;28;19977;-67
2022/04/04 03:11:08;;;;;;;;;;;22.40;28.60;;;;;;5091780;28;19924;-67
2022/04/04 03:13:35;;;;;;;;;;;22.40;28.60;;;;;;5090920;28;19950;-67
2022/04/04 03:16:02;;;;;;;;;;;22.40;28.60;;;;;;5090990;28;19963;-68
2022/04/04 03:18:29;;;;;;;;;;;22.40;28.60;;;;;;5091538;28;19928;-68
2022/04/04 03:20:56;;;;;;;;;;;22.40;28.60;;;;;;5092071;28;20660;-67
2022/04/04 03:23:24;;;;;;;;;;;22.40;28.60;;;;;;5091758;28;19931;-68
2022/04/04 03:25:51;;;;;;;;;;;22.40;28.60;;;;;;5090586;28;20369;-68
2022/04/04 03:28:18;;;;;;;;;;;22.50;28.60;;;;;;5090057;28;19969;-68
2022/04/04 03:30:45;;;;;;;;;;;22.40;28.60;;;;;;5093629;28;20031;-68
2022/04/04 03:33:12;;;;;;;;;;;22.40;28.60;;;;;;5067689;28;20158;-67
2022/04/04 03:35:39;;;;;;;;;;;22.40;28.60;;;;;;5067203;28;19931;-67
2022/04/04 03:38:07;;;;;;;;;;;22.40;29.00;;;;;;5063038;28;19955;-67
2022/04/04 03:40:34;;;;;;;;;;;22.40;28.60;;;;;;5034952;28;20001;-67
2022/04/04 03:43:01;;;;;;;;;;;22.40;28.70;;;;;;5060120;28;20507;-67
2022/04/04 03:45:28;;;;;;;;;;;22.40;28.60;;;;;;5074272;28;19940;-67
2022/04/04 03:47:56;;;;;;;;;;;22.40;28.60;;;;;;5073437;28;19976;-67
2022/04/04 03:50:24;;;;;;;;;;;22.40;28.60;;;;;;5071932;28;19925;-67
2022/04/04 03:52:52;;;;;;;;;;;22.40;28.70;;;;;;5073046;28;19935;-67
2022/04/04 03:55:20;;;;;;;;;;;22.40;28.70;;;;;;5072386;28;19924;-67
2022/04/04 03:57:48;;;;;;;;;;;22.40;28.60;;;;;;5064514;28;19924;-67
2022/04/04 04:00:15;;;;;;;;;;;22.40;28.60;;;;;;5073505;28;19924;-67
2022/04/04 04:02:42;;;;;;;;;;;22.40;28.60;;;;;;5069567;28;20220;-67
2022/04/04 04:05:11;;;;;;;;;;;22.40;28.60;;;;;;5065584;28;20029;-67
2022/04/04 04:07:38;;;;;;;;;;;22.40;28.70;;;;;;5070528;28;19998;-67
2022/04/04 04:10:05;;;;;;;;;;;22.40;28.70;;;;;;5053316;28;19929;-67
2022/04/04 04:12:33;;;;;;;;;;;22.40;28.70;;;;;;5055783;28;19970;-68
2022/04/04 04:15:00;;;;;;;;;;;22.30;28.60;;;;;;5072090;28;19928;-68
2022/04/04 04:17:27;;;;;;;;;;;22.40;28.70;;;;;;5063450;28;19940;-67
2022/04/04 04:22:41;;;;;;;;;;;22.40;28.70;;;;;;5074317;28;20458;-67
2022/04/04 04:25:08;;;;;;;;;;;22.40;28.70;;;;;;5073813;28;19971;-67
2022/04/04 04:27:35;;;;;;;;;;;22.40;28.70;;;;;;5064751;28;19932;-67
2022/04/04 04:30:03;;;;;;;;;;;22.40;28.70;;;;;;5070379;28;19970;-67
2022/04/04 04:32:30;;;;;;;;;;;22.40;28.70;;;;;;5071819;28;19925;-68
2022/04/04 04:34:57;;;;;;;;;;;22.40;28.70;;;;;;5068948;28;19925;-68
2022/04/04 04:37:24;;;;;;;;;;;22.40;28.70;;;;;;5060443;28;20322;-68
2022/04/04 04:39:52;;;;;;;;;;;22.40;28.70;;;;;;5073473;28;20304;-68
2022/04/04 04:42:19;;;;;;;;;;;22.40;28.70;;;;;;5073915;28;19951;-68
2022/04/04 04:44:46;;;;;;;;;;;22.30;28.70;;;;;;5068425;28;20047;-67
2022/04/04 04:47:15;;;;;;;;;;;22.40;28.70;;;;;;5051083;28;19979;-67
2022/04/04 04:49:42;;;;;;;;;;;22.40;28.70;;;;;;5067068;28;20343;-67
2022/04/04 04:52:09;;;;;;;;;;;22.30;28.70;;;;;;5069751;28;20160;-67
2022/04/04 04:54:36;;;;;;;;;;;22.30;28.70;;;;;;5055578;28;20001;-67
2022/04/04 04:57:03;;;;;;;;;;;22.40;28.70;;;;;;5067359;28;19947;-67
2022/04/04 04:59:30;;;;;;;;;;;22.40;28.70;;;;;;5069727;28;19928;-67
2022/04/04 05:01:57;;;;;;;;;;;22.30;28.70;;;;;;5067618;28;19932;-67
2022/04/04 05:04:24;;;;;;;;;;;22.40;28.70;;;;;;5049789;28;19925;-67
2022/04/04 05:06:51;;;;;;;;;;;22.40;29.10;;;;;;5059814;28;20373;-67
2022/04/04 05:09:18;;;;;;;;;;;22.30;28.60;;;;;;5061526;28;19951;-67
2022/04/04 05:11:45;;;;;;;;;;;22.30;28.50;;;;;;5063637;28;19924;-66
2022/04/04 05:14:15;;;;;;;;;;;22.30;28.50;;;;;;5059597;28;20005;-67
2022/04/04 05:16:43;;;;;;;;;;;22.30;28.60;;;;;;5055579;28;20504;-67
2022/04/04 05:19:11;;;;;;;;;;;22.30;28.50;;;;;;5045235;28;20339;-66
2022/04/04 05:21:39;;;;;;;;;;;22.30;28.50;;;;;;5056147;28;19993;-70
2022/04/04 05:24:07;;;;;;;;;;;22.30;28.50;;;;;;5066144;28;20102;-66
2022/04/04 05:26:35;;;;;;;;;;;22.30;28.50;;;;;;5042627;28;19925;-63
2022/04/04 05:29:04;;;;;;;;;;;22.40;28.50;;;;;;5061349;28;20017;-66
2022/04/04 05:31:31;;;;;;;;;;;22.40;28.40;;;;;;5063666;28;19967;-67
2022/04/04 05:33:59;;;;;;;;;;;22.40;28.40;;;;;;5089745;28;19928;-68
2022/04/04 05:36:31;;;;;;;;;;;22.50;28.30;;;;;;5055375;28;21148;-64
2022/04/04 05:38:59;;;;;;;;;;;22.60;28.30;;;;;;5046755;28;20048;-67
2022/04/04 05:41:27;;;;;;;;;;;22.60;28.80;;;;;;5070931;28;19924;-68
2022/04/04 05:43:58;;;;;;;;;;;22.70;29.20;;;;;;5065251;28;20158;-69
2022/04/04 05:46:25;;;;;;;;;;;22.70;29.10;;;;;;5077832;28;19932;-68
2022/04/04 05:52:15;;;;;;;;;;;22.80;28.90;;;;;;5054455;28;19923;-62
2022/04/04 05:54:56;;;;;;;;;;;22.90;28.80;;;;;;5020805;28;20054;-64
2022/04/04 05:57:30;;;;;;;;;;;23.00;28.80;;;;;;5054251;28;20057;-66
2022/04/04 06:00:18;;;;;;;;;;;23.00;28.80;;;;;;5052887;28;20009;-65
2022/04/04 06:03:46;;;;;;;;;;;23.10;29.00;;;;;;5055728;28;19921;-62
2022/04/04 06:06:49;;;;;;;;;;;23.20;28.90;;;;;;5053474;28;19981;-64
2022/04/04 06:09:16;;;;;;;;;;;23.20;28.90;;;;;;5060806;28;19929;-66
2022/04/04 06:14:55;;;;;;;;;;;23.30;28.50;;;;;;5065111;28;20372;-66
2022/04/04 06:17:22;;;;;;;;;;;23.40;28.20;;;;;;5047702;28;20433;-68
2022/04/04 06:19:49;;;;;;;;;;;23.50;28.10;;;;;;5062611;28;20432;-67
2022/04/04 06:22:16;;;;;;;;;;;23.50;28.00;;;;;;5061923;28;19974;-63
2022/04/04 06:28:03;;;;;;;;;;;23.60;27.90;;;;;;5062507;28;19925;-67
2022/04/04 06:30:30;;;;;;;;;;;23.70;27.80;;;;;;5078739;28;19925;-68
2022/04/04 06:32:57;;;;;;;;;;;23.70;27.70;;;;;;5078618;28;19928;-67
2022/04/04 06:35:25;;;;;;;;;;;23.90;27.70;;;;;;5058471;28;19943;-67
2022/04/04 06:37:52;;;;;;;;;;;23.90;27.60;;;;;;5058204;28;20053;-68
2022/04/04 06:40:19;;;;;;;;;;;24.00;27.60;;;;;;5063407;28;19932;-67
2022/04/04 06:42:46;;;;;;;;;;;24.10;27.60;;;;;;5064556;28;19942;-66
2022/04/04 06:45:45;;;;;;;;;;;24.20;27.80;;;;;;5057454;28;19932;-65
2022/04/04 06:48:12;;;;;;;;;;;24.20;27.60;;;;;;5061152;28;19929;-72
2022/04/04 06:50:40;;;;;;;;;;;24.30;27.50;;;;;;5048402;28;19976;-69
2022/04/04 06:53:07;;;;;;;;;;;24.40;27.40;;;;;;5057225;28;21637;-62
2022/04/04 06:55:44;;;;;;;;;;;24.50;27.20;;;;;;5062423;28;20599;-66
2022/04/04 06:58:11;;;;;;;;;;;24.50;27.00;;;;;;5060933;28;19978;-67
2022/04/04 07:00:39;;;;;;;;;;;24.60;27.10;;;;;;5058378;28;19932;-69
2022/04/04 07:03:08;;;;;;;;;;;24.60;27.00;;;;;;5063323;28;19947;-70
2022/04/04 07:05:36;;;;;;;;;;;24.70;27.00;;;;;;5060663;28;20054;-74
2022/04/04 07:08:06;;;;;;;;;;;24.70;27.10;;;;;;5059144;28;20037;-69
2022/04/04 07:10:33;;;;;;;;;;;24.80;26.90;;;;;;5059992;28;19955;-71
2022/04/04 07:13:01;;;;;;;;;;;24.80;26.80;;;;;;5059420;28;20002;-71
2022/04/04 07:15:28;;;;;;;;;;;24.90;26.70;;;;;;5050385;28;19924;-73
2022/04/04 07:17:55;;;;;;;;;;;24.90;26.60;;;;;;5066043;28;20328;-72
2022/04/04 07:23:18;;;;;;;;;;;25.10;26.50;;;;;;5055234;28;19932;-74
2022/04/04 07:25:47;;;;;;;;;;;25.10;26.40;;;;;;5053955;28;19972;-72
2022/04/04 07:28:14;;;;;;;;;;;25.20;26.30;;;;;;5059724;28;20557;-69
2022/04/04 07:30:43;;;;;;;;;;;25.30;26.30;;;;;;5060375;28;19962;-67
2022/04/04 07:33:15;;;;;;;;;;;25.30;26.20;;;;;;5055360;28;19934;-73
2022/04/04 07:35:43;;;;;;;;;;;25.40;26.20;;;;;;5042995;28;20029;-75
2022/04/04 07:38:10;;;;;;;;;;;25.40;26.30;;;;;;5055552;28;19932;-74
2022/04/04 07:40:38;;;;;;;;;;;25.50;26.00;;;;;;5058297;28;19940;-72
2022/04/04 07:43:05;;;;;;;;;;;25.50;25.90;;;;;;5055558;28;19928;-70
2022/04/04 07:45:33;;;;;;;;;;;25.50;25.80;;;;;;5061859;28;19940;-74
2022/04/04 07:48:01;;;;;;;;;;;25.60;25.80;;;;;;5060165;28;19967;-74
2022/04/04 07:50:28;;;;;;;;;;;25.60;25.80;;;;;;5058972;28;19955;-71
2022/04/04 07:52:56;;;;;;;;;;;25.70;25.80;;;;;;5042695;28;19932;-72
2022/04/04 07:55:23;;;;;;;;;;;25.70;25.70;;;;;;5053288;28;19967;-66
2022/04/04 07:58:08;;;;;;;;;;;25.80;25.70;;;;;;5051568;28;19986;-75
2022/04/04 08:00:35;;;;;;;;;;;25.80;25.80;;;;;;5059695;28;20034;-73
2022/04/04 08:03:04;;;;;;;;;;;25.90;25.70;;;;;;5053916;28;20175;-70
2022/04/04 08:05:31;;;;;;;;;;;26.00;25.70;;;;;;5059778;28;20020;-67
2022/04/04 08:07:58;;;;;;;;;;;26.00;25.90;;;;;;5057792;28;19932;-68
2022/04/04 08:10:25;;;;;;;;;;;26.00;26.20;;;;;;5039992;28;19924;-73
2022/04/04 08:12:53;;;;;;;;;;;26.10;26.10;;;;;;5063482;28;21640;-73
2022/04/04 08:15:22;;;;;;;;;;;26.10;26.30;;;;;;5062411;28;21575;-75
2022/04/04 08:17:55;;;;;;;;;;;26.10;26.40;;;;;;5062028;28;20687;-72
2022/04/04 08:20:23;;;;;;;;;;;26.10;26.50;;;;;;5033444;28;19940;-71
2022/04/04 08:22:50;;;;;;;;;;;26.10;26.40;;;;;;5059502;28;19929;-73
2022/04/04 08:25:17;;;;;;;;;;;26.20;26.40;;;;;;5058060;28;19977;-79
2022/04/04 08:27:44;;;;;;;;;;;26.20;26.40;;;;;;5062720;28;19926;-66
2022/04/04 08:30:15;;;;;;;;;;;26.20;26.30;;;;;;5057026;28;19925;-71
2022/04/04 08:32:44;;;;;;;;;;;26.20;26.30;;;;;;5058371;28;19932;-77
2022/04/04 08:35:12;;;;;;;;;;;26.20;26.40;;;;;;5050538;28;19924;-75
2022/04/04 08:37:41;;;;;;;;;;;26.30;26.30;;;;;;5057445;28;19932;-78
2022/04/04 08:40:09;;;;;;;;;;;26.20;26.10;;;;;;5054601;28;20047;-72
2022/04/04 08:42:37;;;;;;;;;;;26.20;25.90;;;;;;5055566;28;20012;-74
2022/04/04 08:45:04;;;;;;;;;;;26.30;25.90;;;;;;5056648;28;20029;-71
2022/04/04 08:47:32;;;;;;;;;;;26.30;25.70;;;;;;5059200;28;20433;-68
2022/04/04 08:50:01;;;;;;;;;;;26.20;25.80;;;;;;5059554;28;19929;-74
2022/04/04 08:52:28;;;;;;;;;;;26.30;25.80;;;;;;5034463;28;19984;-72
2022/04/04 08:54:58;;;;;;;;;;;26.30;25.70;;;;;;5055322;28;20199;-76
2022/04/04 08:57:25;;;;;;;;;;;26.30;25.70;;;;;;5055525;28;19994;-72
2022/04/04 08:59:52;;;;;;;;;;;26.30;25.70;;;;;;5045997;28;19948;-77
2022/04/04 09:02:19;;;;;;;;;;;26.30;25.50;;;;;;5061900;28;19962;-67
2022/04/04 09:04:50;;;;;;;;;;;26.30;25.30;;;;;;5052093;28;20446;-69
2022/04/04 09:07:19;;;;;;;;;;;26.20;25.40;;;;;;5042676;28;19964;-63
2022/04/04 09:09:49;;;;;;;;;;;26.20;25.50;;;;;;5065541;28;19928;-68
2022/04/04 09:12:19;;;;;;;;;;;26.30;25.60;;;;;;5066136;28;19979;-67
2022/04/04 09:14:51;;;;;;;;;;;26.30;25.70;;;;;;5061141;28;20070;-68
2022/04/04 09:17:21;;;;;;;;;;;26.30;25.70;;;;;;5060039;28;20033;-68
2022/04/04 09:19:48;;;;;;;;;;;26.30;25.70;;;;;;5048157;28;19932;-67
2022/04/04 09:22:18;;;;;;;;;;;26.30;25.60;;;;;;5061989;28;20488;-69
2022/04/04 09:24:55;;;;;;;;;;;26.30;25.60;;;;;;5045928;28;20361;-61
2022/04/04 09:27:33;;;;;;;;;;;26.30;25.70;;;;;;5061853;28;20013;-66
2022/04/04 09:30:02;;;;;;;;;;;26.30;25.60;;;;;;5060088;28;19932;-65
2022/04/04 09:32:36;;;;;;;;;;;26.30;25.70;;;;;;5051075;28;20009;-66
2022/04/04 09:35:08;;;;;;;;;;;26.30;25.70;;;;;;5058614;28;20029;-68
2022/04/04 09:37:37;;;;;;;;;;;26.30;25.70;;;;;;5066418;28;19936;-64
2022/04/04 09:40:14;;;;;;;;;;;26.30;25.70;;;;;;5058254;28;19968;-66
2022/04/04 09:42:42;;;;;;;;;;;26.30;25.70;;;;;;5058680;28;19943;-63
2022/04/04 09:45:10;;;;;;;;;;;26.30;25.70;;;;;;5060517;28;19928;-72
2022/04/04 09:47:49;;;;;;;;;;;26.20;25.60;;;;;;5064339;28;20008;-71
2022/04/04 09:50:36;;;;;;;;;;;26.20;25.60;;;;;;5062338;28;19929;-66
2022/04/04 09:53:43;;;;;;;;;;;26.20;25.60;;;;;;5063450;28;19920;-70
2022/04/04 09:56:50;;;;;;;;;;;26.20;25.60;;;;;;5070014;28;19928;-68
2022/04/04 09:59:47;;;;;;;;;;;26.20;25.60;;;;;;5059577;28;19924;-64
2022/04/04 10:02:14;;;;;;;;;;;26.20;25.60;;;;;;5058150;28;19993;-63
2022/04/04 10:04:42;;;;;;;;;;;26.10;25.60;;;;;;5059655;28;20040;-66
2022/04/04 10:07:11;;;;;;;;;;;26.20;25.60;;;;;;5073938;28;19928;-64
2022/04/04 10:09:38;;;;;;;;;;;26.10;25.50;;;;;;5064211;28;19982;-66
2022/04/04 10:12:07;;;;;;;;;;;26.20;25.50;;;;;;5041891;28;20722;-64
2022/04/04 10:14:34;;;;;;;;;;;26.20;25.40;;;;;;5043038;28;19937;-70
2022/04/04 10:17:02;;;;;;;;;;;26.20;25.20;;;;;;5062594;28;20001;-69
2022/04/04 10:19:29;;;;;;;;;;;26.20;25.10;;;;;;5067165;28;19936;-64
2022/04/04 10:21:56;;;;;;;;;;;26.20;25.10;;;;;;5060800;28;19921;-69
2022/04/04 10:27:27;;;;;;;;;;;26.20;25.00;;;;;;5067258;28;20373;-69
2022/04/04 10:30:05;;;;;;;;;;;26.20;24.80;;;;;;5069640;28;19924;-69
2022/04/04 10:32:33;;;;;;;;;;;26.20;24.80;;;;;;5064376;28;19920;-64
2022/04/04 10:35:10;;;;;;;;;;;26.20;24.80;;;;;;5065799;28;20073;-68
2022/04/04 10:37:44;;;;;;;;;;;26.20;24.80;;;;;;5055347;28;20003;-63
2022/04/04 10:40:19;;;;;;;;;;;26.20;24.70;;;;;;5070301;28;19936;-69
2022/04/04 10:42:48;;;;;;;;;;;26.10;24.70;;;;;;5063525;28;20017;-67
2022/04/04 10:45:18;;;;;;;;;;;26.10;24.80;;;;;;5064192;28;19959;-67
2022/04/04 10:47:48;;;;;;;;;;;26.10;25.00;;;;;;5062103;28;19924;-67
2022/04/04 10:50:24;;;;;;;;;;;26.20;25.10;;;;;;5068309;28;20373;-67
2022/04/04 10:52:53;;;;;;;;;;;26.10;25.10;;;;;;5062964;28;19932;-70
2022/04/04 10:58:34;;;;;;;;;;;26.20;25.20;;;;;;5060727;28;19924;-70
2022/04/04 11:01:18;;;;;;;;;;;26.20;25.10;;;;;;5068078;28;19982;-70
2022/04/04 11:04:00;;;;;;;;;;;26.20;25.10;;;;;;5061736;28;19925;-73
2022/04/04 11:09:51;;;;;;;;;;;26.20;25.10;;;;;;5057648;28;19927;-71
2022/04/04 11:12:21;;;;;;;;;;;26.20;25.10;;;;;;5074985;28;20544;-71
2022/04/04 11:14:57;;;;;;;;;;;26.10;25.00;;;;;;5043360;28;19932;-68
2022/04/04 11:17:36;;;;;;;;;;;26.00;25.10;;;;;;5042907;28;19986;-68
2022/04/04 11:20:10;;;;;;;;;;;26.10;25.50;;;;;;5061841;28;19925;-65
2022/04/04 11:22:41;;;;;;;;;;;26.00;25.00;;;;;;5068162;28;19955;-68
2022/04/04 11:25:16;;;;;;;;;;;26.00;25.00;;;;;;5074892;28;19924;-67
2022/04/04 11:27:48;;;;;;;;;;;26.00;24.90;;;;;;5066576;28;19924;-68
2022/04/04 11:30:39;;;;;;;;;;;26.00;24.90;;;;;;5079924;28;19924;-68
2022/04/04 11:33:11;;;;;;;;;;;26.00;25.10;;;;;;5079045;28;20319;-65
2022/04/04 11:35:38;;;;;;;;;;;26.00;25.20;;;;;;5078650;28;19970;-69
2022/04/04 11:38:07;;;;;;;;;;;25.90;25.20;;;;;;5093265;28;19993;-63
2022/04/04 11:40:44;;;;;;;;;;;26.00;25.20;;;;;;5070839;28;19929;-68
2022/04/04 11:43:12;;;;;;;;;;;25.90;25.20;;;;;;5066356;28;19929;-69
2022/04/04 11:56:10;;;;;;;;;;;26.00;25.40;;;;;;5081939;28;19915;-63
2022/04/04 11:58:46;;;;;;;;;;;26.00;25.40;;;;;;5074820;28;19928;-68
2022/04/04 12:01:13;;;;;;;;;;;26.00;25.30;;;;;;5083992;28;19924;-62
2022/04/04 12:04:17;;;;;;;;;;;26.10;25.40;;;;;;5079007;28;20343;-65
2022/04/04 12:11:03;;;;;;;;;;;26.20;25.20;;;;;;5059332;28;20474;-63
2022/04/04 12:13:31;;;;;;;;;;;26.20;25.20;;;;;;5096068;28;19973;-61
2022/04/04 12:15:58;;;;;;;;;;;26.20;25.10;;;;;;5080595;28;19932;-62
2022/04/04 12:18:26;;;;;;;;;;;26.20;25.20;;;;;;5097983;28;20300;-68
2022/04/04 12:20:55;;;;;;;;;;;26.20;25.20;;;;;;5080829;28;20447;-68
2022/04/04 12:30:06;;;;;;;;;;;26.30;25.20;;;;;;5060449;28;19973;-59
2022/04/04 12:32:39;;;;;;;;;;;26.30;25.00;;;;;;5056434;28;19990;-63
2022/04/04 12:35:07;;;;;;;;;;;26.30;24.90;;;;;;5058203;28;19974;-66
2022/04/04 12:37:44;;;;;;;;;;;26.30;24.90;;;;;;5053470;28;20022;-67
2022/04/04 12:40:12;;;;;;;;;;;26.30;25.20;;;;;;5060883;28;20139;-67
2022/04/04 12:42:40;;;;;;;;;;;26.30;24.90;;;;;;5056495;28;19954;-62
2022/04/04 12:45:07;;;;;;;;;;;26.30;24.90;;;;;;5060247;28;19932;-66
2022/04/04 12:47:34;;;;;;;;;;;26.40;24.90;;;;;;5061888;28;19924;-61
2022/04/04 12:50:15;;;;;;;;;;;26.40;24.80;;;;;;5060909;28;19955;-62
2022/04/04 12:52:59;;;;;;;;;;;26.40;25.00;;;;;;5060449;28;19924;-66
2022/04/04 12:55:26;;;;;;;;;;;26.40;25.00;;;;;;5058492;28;19928;-66
2022/04/04 12:57:54;;;;;;;;;;;26.40;24.90;;;;;;5056342;28;20034;-65
2022/04/04 13:03:52;;;;;;;;;;;26.40;24.70;;;;;;5064974;28;19932;-63
2022/04/04 13:06:20;;;;;;;;;;;26.40;24.90;;;;;;5067371;28;19929;-66
2022/04/04 13:08:55;;;;;;;;;;;26.50;25.20;;;;;;5058760;28;20637;-61
2022/04/04 13:11:24;;;;;;;;;;;26.50;25.40;;;;;;5057135;28;19946;-65
2022/04/04 13:14:05;;;;;;;;;;;26.50;25.40;;;;;;5057875;28;19933;-67
2022/04/04 13:16:38;;;;;;;;;;;26.50;25.40;;;;;;5037935;28;19932;-67
2022/04/04 13:19:09;;;;;;;;;;;26.50;25.10;;;;;;5039808;28;19990;-64
2022/04/04 13:21:37;;;;;;;;;;;26.50;25.20;;;;;;5036376;28;19956;-67
2022/04/04 13:24:08;;;;;;;;;;;26.50;25.20;;;;;;5059660;28;19956;-63
2022/04/04 13:26:36;;;;;;;;;;;26.50;24.80;;;;;;5048602;28;19925;-66
2022/04/04 13:29:09;;;;;;;;;;;26.60;24.70;;;;;;5046597;28;19936;-66
2022/04/04 13:31:37;;;;;;;;;;;26.60;24.80;;;;;;5058594;28;19933;-67
2022/04/04 13:34:04;;;;;;;;;;;26.60;24.90;;;;;;5054723;28;20440;-73
2022/04/04 13:36:39;;;;;;;;;;;26.60;24.90;;;;;;5057027;28;20027;-64
2022/04/04 13:39:10;;;;;;;;;;;26.50;25.00;;;;;;5056859;28;20504;-69
2022/04/04 13:41:38;;;;;;;;;;;26.60;24.90;;;;;;5060393;28;20021;-66
2022/04/04 13:44:06;;;;;;;;;;;26.60;24.90;;;;;;5058538;28;19929;-65
2022/04/04 13:46:34;;;;;;;;;;;26.50;24.90;;;;;;5064934;28;19950;-68
2022/04/04 13:52:34;;;;;;;;;;;26.50;24.90;;;;;;5103239;22;19930;-73
2022/04/04 13:55:05;;;;;;;;;;;26.50;24.80;;;;;;5086080;28;19989;-65
2022/04/04 13:57:33;;;;;;;;;;;26.40;24.90;;;;;;5084345;28;19920;-69
2022/04/04 14:00:00;;;;;;;;;;;26.50;25.10;;;;;;5081077;28;19928;-71
2022/04/04 14:06:00;;;;;;;;;;;26.40;24.90;;;;;;5077747;28;20498;-69
2022/04/04 14:08:27;;;;;;;;;;;26.40;24.90;;;;;;5085926;28;19928;-74
2022/04/04 14:10:54;;;;;;;;;;;26.40;24.90;;;;;;5086247;28;19932;-71
2022/04/04 14:13:21;;;;;;;;;;;26.40;25.00;;;;;;5078676;28;19943;-73
2022/04/04 14:15:51;;;;;;;;;;;26.40;24.90;;;;;;5079208;28;19946;-71
2022/04/04 14:18:19;;;;;;;;;;;26.40;24.70;;;;;;5077023;28;19962;-65
2022/04/04 14:20:46;;;;;;;;;;;26.40;24.80;;;;;;5082030;28;20450;-72
2022/04/04 14:23:13;;;;;;;;;;;26.40;24.80;;;;;;5077982;28;20629;-74
2022/04/04 14:25:40;;;;;;;;;;;26.30;24.70;;;;;;5099138;28;19928;-72
2022/04/04 14:28:10;;;;;;;;;;;26.30;24.70;;;;;;5078760;28;19940;-72
2022/04/04 14:30:37;;;;;;;;;;;26.30;24.60;;;;;;5075481;28;19989;-68
2022/04/04 14:33:04;;;;;;;;;;;26.30;24.60;;;;;;5093909;28;19924;-71
2022/04/04 14:35:31;;;;;;;;;;;26.30;24.70;;;;;;5098875;28;19993;-72
2022/04/04 14:37:58;;;;;;;;;;;26.30;24.70;;;;;;5100134;28;19932;-71
2022/04/04 14:40:25;;;;;;;;;;;26.30;24.60;;;;;;5114893;28;19931;-71
2022/04/04 14:42:52;;;;;;;;;;;26.30;24.70;;;;;;5099125;28;19924;-66
2022/04/04 14:45:19;;;;;;;;;;;26.30;24.70;;;;;;5099460;28;19924;-66
2022/04/04 14:47:46;;;;;;;;;;;26.30;24.80;;;;;;5114063;28;19928;-67
2022/04/04 14:50:13;;;;;;;;;;;26.30;24.80;;;;;;5098574;28;19935;-66
2022/04/04 14:52:41;;;;;;;;;;;26.20;24.70;;;;;;5098239;28;19966;-66
2022/04/04 14:55:09;;;;;;;;;;;26.20;24.70;;;;;;5097729;28;19924;-67
2022/04/04 14:57:36;;;;;;;;;;;26.10;24.60;;;;;;5098825;28;19953;-67
2022/04/04 15:00:05;;;;;;;;;;;26.10;24.70;;;;;;5098185;28;19974;-67
2022/04/04 15:02:35;;;;;;;;;;;26.00;24.60;;;;;;5099028;28;19924;-68
2022/04/04 15:05:23;;;;;;;;;;;26.00;24.50;;;;;;5099008;28;19947;-67
2022/04/04 15:07:51;;;;;;;;;;;26.00;24.50;;;;;;5099319;28;19931;-67
2022/04/04 15:10:18;;;;;;;;;;;25.90;24.50;;;;;;5097516;28;19924;-69
2022/04/04 15:12:45;;;;;;;;;;;25.90;24.50;;;;;;5098967;28;20273;-69
2022/04/04 15:15:12;;;;;;;;;;;25.90;24.60;;;;;;5099066;28;19935;-69
2022/04/04 15:17:39;;;;;;;;;;;25.80;24.50;;;;;;5098663;28;19924;-68
2022/04/04 15:20:07;;;;;;;;;;;25.80;24.60;;;;;;5099253;28;19928;-67
2022/04/04 15:22:34;;;;;;;;;;;25.80;24.70;;;;;;5098609;28;19924;-68
2022/04/04 15:25:01;;;;;;;;;;;25.80;24.70;;;;;;5099077;28;19928;-67
2022/04/04 15:27:28;;;;;;;;;;;25.80;24.80;;;;;;5098743;28;19924;-68
2022/04/04 15:29:55;;;;;;;;;;;25.70;25.00;;;;;;5098574;28;19924;-68